Time;durP1;ratioP1;P1;durP2;ratioP2;P2;SDS_P1;SDS_P2;PMS_P1;PMS_P2;Temp;Humidity;BMP_temperature;BMP_pressure;BME280_temperature;BME280_humidity;BME280_pressure;Samples;Min_cycle;Max_cycle;Signal;HPM_P1;HPM_P2
2022/08/10 00:00:53;;;;;;;10.60;7.85;;;;;;;;;;4234695;33;20125;-74
2022/08/10 00:03:19;;;;;;;13.57;8.20;;;;;;;;;;4247663;33;20530;-75
2022/08/10 00:35:19;;;;;;;13.62;9.32;;;;;;;;;;4807420;28;20203;-70
2022/08/10 00:37:45;;;;;;;13.95;9.43;;;;;;;;;;4251588;33;20117;-70
2022/08/10 00:40:12;;;;;;;15.10;8.82;;;;;;;;;;4261660;33;20112;-70
2022/08/10 00:42:38;;;;;;;11.15;7.70;;;;;;;;;;4261561;33;20107;-71
2022/08/10 00:45:04;;;;;;;14.98;9.43;;;;;;;;;;4260704;33;20116;-62
2022/08/10 00:47:30;;;;;;;11.90;8.60;;;;;;;;;;4261311;33;20104;-63
2022/08/10 00:49:56;;;;;;;10.73;8.75;;;;;;;;;;4261613;33;20143;-63
2022/08/10 00:52:24;;;;;;;12.50;7.70;;;;;;;;;;4248475;33;20456;-70
2022/08/10 00:54:50;;;;;;;13.75;8.55;;;;;;;;;;4261589;33;20081;-69
2022/08/10 00:57:16;;;;;;;16.00;9.25;;;;;;;;;;4261187;33;20543;-69
2022/08/10 00:59:42;;;;;;;16.12;9.45;;;;;;;;;;4261417;33;20463;-69
2022/08/10 01:02:08;;;;;;;12.75;8.43;;;;;;;;;;4261280;33;20127;-69
2022/08/10 01:04:34;;;;;;;15.98;9.50;;;;;;;;;;4261272;33;20124;-69
2022/08/10 01:07:37;;;;;;;15.38;8.88;;;;;;;;;;4261483;33;20097;-69
2022/08/10 01:10:23;;;;;;;13.07;7.93;;;;;;;;;;4261382;33;20110;-68
2022/08/10 01:12:55;;;;;;;10.60;8.75;;;;;;;;;;4247933;33;20104;-69
2022/08/10 01:15:28;;;;;;;15.82;9.13;;;;;;;;;;4261308;33;20128;-68
2022/08/10 01:18:02;;;;;;;11.68;8.13;;;;;;;;;;4248212;33;20148;-69
2022/08/10 01:20:39;;;;;;;13.95;8.70;;;;;;;;;;4261573;33;20108;-68
2022/08/10 01:23:47;;;;;;;9.57;7.68;;;;;;;;;;4261000;33;20120;-68
2022/08/10 01:26:24;;;;;;;19.15;9.00;;;;;;;;;;4255224;33;20131;-70
2022/08/10 01:29:02;;;;;;;12.65;8.60;;;;;;;;;;4248189;33;20091;-69
2022/08/10 01:31:32;;;;;;;18.83;10.93;;;;;;;;;;4261139;33;20753;-70
2022/08/10 01:34:02;;;;;;;11.90;9.05;;;;;;;;;;4248051;33;20088;-70
2022/08/10 01:36:35;;;;;;;13.45;8.98;;;;;;;;;;4260632;33;20120;-70
2022/08/10 01:39:03;;;;;;;16.48;8.93;;;;;;;;;;4247953;33;20132;-70
2022/08/10 01:41:43;;;;;;;13.88;9.38;;;;;;;;;;4247830;33;20130;-69
2022/08/10 01:44:24;;;;;;;15.15;10.35;;;;;;;;;;4260855;33;20139;-70
2022/08/10 01:46:52;;;;;;;15.13;9.68;;;;;;;;;;4247914;33;20104;-70
2022/08/10 01:49:19;;;;;;;13.62;9.88;;;;;;;;;;4260735;33;20216;-70
2022/08/10 01:51:49;;;;;;;12.18;9.85;;;;;;;;;;4247864;33;20105;-70
2022/08/10 01:54:21;;;;;;;13.32;9.43;;;;;;;;;;4235579;33;20135;-69
2022/08/10 01:56:49;;;;;;;18.65;9.23;;;;;;;;;;4248036;33;20120;-70
2022/08/10 01:59:20;;;;;;;16.20;10.10;;;;;;;;;;4247536;33;20093;-69
2022/08/10 02:01:56;;;;;;;20.55;9.68;;;;;;;;;;4235888;33;20211;-63
2022/08/10 02:04:23;;;;;;;30.20;10.63;;;;;;;;;;4247892;33;20093;-63
2022/08/10 02:06:51;;;;;;;18.48;10.15;;;;;;;;;;4247669;33;20147;-63
2022/08/10 02:09:26;;;;;;;19.40;10.05;;;;;;;;;;4247494;33;20524;-63
2022/08/10 02:11:55;;;;;;;20.37;10.13;;;;;;;;;;4247674;33;20113;-63
2022/08/10 02:14:23;;;;;;;22.70;10.63;;;;;;;;;;4233404;33;20136;-63
2022/08/10 02:16:50;;;;;;;21.55;10.45;;;;;;;;;;4233452;33;20112;-62
2022/08/10 02:19:19;;;;;;;14.10;8.63;;;;;;;;;;4246526;33;20107;-63
2022/08/10 02:21:47;;;;;;;15.43;9.77;;;;;;;;;;4246626;33;20646;-66
2022/08/10 02:24:15;;;;;;;22.37;12.00;;;;;;;;;;4256405;33;20151;-64
2022/08/10 02:26:42;;;;;;;12.40;7.03;;;;;;;;;;4247455;33;20107;-63
2022/08/10 02:29:11;;;;;;;19.35;9.23;;;;;;;;;;4247651;33;20139;-63
2022/08/10 02:31:37;;;;;;;15.48;9.07;;;;;;;;;;4260502;33;20119;-63
2022/08/10 02:34:04;;;;;;;15.80;9.60;;;;;;;;;;4247500;33;20444;-63
2022/08/10 02:36:33;;;;;;;22.73;9.82;;;;;;;;;;4247443;33;20092;-64
2022/08/10 02:39:04;;;;;;;25.60;9.60;;;;;;;;;;4259517;33;20132;-64
2022/08/10 02:41:50;;;;;;;23.42;9.52;;;;;;;;;;4256947;33;20216;-61
2022/08/10 02:44:27;;;;;;;16.27;9.73;;;;;;;;;;4246395;33;20175;-63
2022/08/10 02:47:09;;;;;;;26.42;10.52;;;;;;;;;;4251960;33;20088;-63
2022/08/10 02:49:39;;;;;;;19.02;9.88;;;;;;;;;;4235252;33;20269;-63
2022/08/10 02:52:08;;;;;;;21.00;10.70;;;;;;;;;;4244931;33;20112;-63
2022/08/10 02:54:37;;;;;;;17.95;9.93;;;;;;;;;;4257192;33;20127;-63
2022/08/10 02:57:09;;;;;;;26.55;11.02;;;;;;;;;;4259463;33;20127;-64
2022/08/10 02:59:44;;;;;;;29.05;9.75;;;;;;;;;;4257375;33;20103;-63
2022/08/10 03:02:19;;;;;;;14.70;9.80;;;;;;;;;;4246707;33;20128;-62
2022/08/10 03:04:47;;;;;;;15.15;9.38;;;;;;;;;;4245070;33;20124;-63
2022/08/10 03:07:16;;;;;;;13.10;9.63;;;;;;;;;;4247090;33;20250;-62
2022/08/10 03:09:42;;;;;;;19.33;10.55;;;;;;;;;;4259407;33;20128;-62
2022/08/10 03:12:10;;;;;;;19.48;9.68;;;;;;;;;;4247190;33;20496;-61
2022/08/10 03:14:37;;;;;;;21.37;9.88;;;;;;;;;;4258590;33;20119;-60
2022/08/10 03:17:04;;;;;;;18.98;9.82;;;;;;;;;;4246642;33;20113;-63
2022/08/10 03:19:32;;;;;;;14.95;8.82;;;;;;;;;;4234916;33;20522;-63
2022/08/10 03:21:58;;;;;;;32.13;11.15;;;;;;;;;;4246919;33;20198;-63
2022/08/10 03:24:26;;;;;;;33.55;11.77;;;;;;;;;;4259840;33;20621;-63
2022/08/10 03:26:53;;;;;;;31.73;12.77;;;;;;;;;;4246821;33;20112;-63
2022/08/10 03:29:21;;;;;;;24.65;13.50;;;;;;;;;;4234992;33;20183;-63
2022/08/10 03:31:47;;;;;;;33.78;12.98;;;;;;;;;;4244096;33;20130;-63
2022/08/10 03:34:15;;;;;;;27.42;12.57;;;;;;;;;;4245982;33;20156;-63
2022/08/10 03:36:41;;;;;;;21.17;10.50;;;;;;;;;;4246800;33;20119;-63
2022/08/10 03:39:08;;;;;;;22.05;10.80;;;;;;;;;;4250268;33;20213;-63
2022/08/10 03:41:40;;;;;;;30.70;12.40;;;;;;;;;;4246613;33;20103;-63
2022/08/10 03:44:07;;;;;;;33.38;12.68;;;;;;;;;;4259790;33;20187;-62
2022/08/10 03:46:36;;;;;;;40.78;13.10;;;;;;;;;;4251814;33;20108;-64
2022/08/10 03:49:03;;;;;;;29.92;12.30;;;;;;;;;;4246717;33;20110;-62
2022/08/10 03:51:29;;;;;;;29.35;11.00;;;;;;;;;;4246680;33;20123;-62
2022/08/10 03:53:56;;;;;;;27.50;11.75;;;;;;;;;;4259093;33;20771;-62
2022/08/10 03:56:22;;;;;;;18.00;10.40;;;;;;;;;;4259337;33;20116;-62
2022/08/10 03:58:48;;;;;;;29.55;12.07;;;;;;;;;;4256520;33;20131;-60
2022/08/10 04:01:14;;;;;;;26.10;11.43;;;;;;;;;;4260150;33;20120;-71
2022/08/10 04:03:41;;;;;;;29.60;10.52;;;;;;;;;;4221314;33;20097;-67
2022/08/10 04:06:08;;;;;;;38.63;13.15;;;;;;;;;;4248412;33;20544;-69
2022/08/10 04:08:35;;;;;;;28.75;12.52;;;;;;;;;;4261723;33;20537;-68
2022/08/10 04:11:01;;;;;;;21.58;11.02;;;;;;;;;;4255668;33;20121;-68
2022/08/10 04:13:27;;;;;;;29.23;11.93;;;;;;;;;;4255237;33;20111;-68
2022/08/10 04:15:53;;;;;;;13.90;9.43;;;;;;;;;;4261769;33;20589;-69
2022/08/10 04:18:19;;;;;;;19.62;9.18;;;;;;;;;;4261962;33;20190;-70
2022/08/10 04:20:49;;;;;;;13.30;9.32;;;;;;;;;;4261295;33;20110;-68
2022/08/10 04:23:19;;;;;;;17.52;9.65;;;;;;;;;;4240441;33;20196;-68
2022/08/10 04:25:45;;;;;;;13.38;9.13;;;;;;;;;;4246721;33;20105;-69
2022/08/10 04:28:11;;;;;;;11.63;9.02;;;;;;;;;;4247718;33;20112;-69
2022/08/10 04:30:38;;;;;;;16.92;8.50;;;;;;;;;;4234905;33;20120;-69
2022/08/10 04:33:06;;;;;;;13.93;8.73;;;;;;;;;;4234919;33;20098;-70
2022/08/10 04:35:32;;;;;;;14.00;8.57;;;;;;;;;;4234567;33;20203;-71
2022/08/10 04:37:59;;;;;;;21.58;7.87;;;;;;;;;;4235142;33;20209;-72
2022/08/10 04:40:26;;;;;;;17.95;8.27;;;;;;;;;;4262339;33;20105;-71
2022/08/10 04:42:52;;;;;;;18.77;9.45;;;;;;;;;;4262542;33;20614;-70
2022/08/10 04:45:18;;;;;;;12.15;7.45;;;;;;;;;;4261652;33;20100;-71
2022/08/10 04:47:45;;;;;;;11.75;9.48;;;;;;;;;;4260924;33;20100;-68
2022/08/10 04:50:11;;;;;;;18.80;9.48;;;;;;;;;;4258955;33;20092;-68
2022/08/10 04:52:37;;;;;;;12.20;8.13;;;;;;;;;;4261397;33;20116;-69
2022/08/10 04:55:04;;;;;;;9.82;7.55;;;;;;;;;;4261459;33;20180;-69
2022/08/10 04:57:30;;;;;;;10.02;7.70;;;;;;;;;;4260825;33;20127;-68
2022/08/10 04:59:56;;;;;;;14.82;7.80;;;;;;;;;;4252551;33;20108;-69
2022/08/10 05:02:22;;;;;;;15.73;7.85;;;;;;;;;;4261255;33;20504;-68
2022/08/10 05:04:48;;;;;;;19.25;9.15;;;;;;;;;;4260858;33;20092;-67
2022/08/10 05:07:15;;;;;;;10.10;7.20;;;;;;;;;;4259592;33;20124;-68
2022/08/10 05:09:41;;;;;;;10.95;8.27;;;;;;;;;;4260671;33;20119;-70
2022/08/10 05:12:07;;;;;;;12.18;8.35;;;;;;;;;;4261089;33;20128;-71
2022/08/10 05:14:34;;;;;;;11.93;7.65;;;;;;;;;;4261128;33;20454;-73
2022/08/10 05:17:00;;;;;;;10.50;8.27;;;;;;;;;;4261274;33;20471;-68
2022/08/10 05:19:26;;;;;;;13.93;7.90;;;;;;;;;;4261453;33;20130;-68
2022/08/10 05:21:52;;;;;;;12.55;7.68;;;;;;;;;;4261177;33;20100;-66
2022/08/10 05:24:18;;;;;;;11.52;7.72;;;;;;;;;;4261078;33;20136;-69
2022/08/10 05:26:44;;;;;;;10.95;7.65;;;;;;;;;;4260078;33;20184;-70
2022/08/10 05:29:10;;;;;;;14.15;7.70;;;;;;;;;;4260074;33;20124;-70
2022/08/10 05:31:36;;;;;;;13.32;6.75;;;;;;;;;;4260455;33;20584;-67
2022/08/10 05:34:02;;;;;;;10.30;6.45;;;;;;;;;;4259287;33;20104;-68
2022/08/10 05:36:28;;;;;;;11.10;6.62;;;;;;;;;;4260658;33;20476;-67
2022/08/10 05:38:54;;;;;;;12.80;7.47;;;;;;;;;;4260433;33;20123;-67
2022/08/10 05:41:21;;;;;;;9.32;6.72;;;;;;;;;;4247974;33;20144;-67
2022/08/10 05:43:47;;;;;;;14.98;8.13;;;;;;;;;;4260865;33;20128;-65
2022/08/10 05:46:13;;;;;;;8.88;6.68;;;;;;;;;;4247986;33;20119;-67
2022/08/10 05:48:40;;;;;;;9.73;6.75;;;;;;;;;;4261169;33;20092;-67
2022/08/10 05:51:07;;;;;;;9.80;6.95;;;;;;;;;;4260882;33;20104;-68
2022/08/10 05:53:35;;;;;;;8.52;6.82;;;;;;;;;;4261125;33;20136;-68
2022/08/10 05:56:02;;;;;;;9.75;6.62;;;;;;;;;;4259188;33;20100;-69
2022/08/10 05:58:28;;;;;;;11.75;7.68;;;;;;;;;;4233633;33;20119;-70
2022/08/10 06:00:56;;;;;;;12.90;7.15;;;;;;;;;;4246857;33;20113;-68
2022/08/10 06:03:29;;;;;;;10.30;7.80;;;;;;;;;;4246792;33;20449;-69
2022/08/10 06:05:57;;;;;;;9.57;6.65;;;;;;;;;;4246610;33;20136;-67
2022/08/10 06:08:27;;;;;;;10.40;7.47;;;;;;;;;;4246757;33;20469;-68
2022/08/10 06:10:54;;;;;;;8.52;6.90;;;;;;;;;;4257387;33;20479;-69
2022/08/10 06:16:09;;;;;;;9.25;6.45;;;;;;;;;;4249455;33;20198;-68
2022/08/10 06:18:36;;;;;;;11.45;6.47;;;;;;;;;;4247821;33;20175;-69
2022/08/10 06:21:03;;;;;;;10.98;6.50;;;;;;;;;;4247428;33;20464;-69
2022/08/10 06:23:30;;;;;;;13.13;7.25;;;;;;;;;;4258726;33;20096;-69
2022/08/10 06:25:56;;;;;;;10.02;7.00;;;;;;;;;;4260451;33;20127;-70
2022/08/10 06:28:24;;;;;;;10.18;7.18;;;;;;;;;;4260646;33;20112;-69
2022/08/10 06:30:51;;;;;;;8.43;6.90;;;;;;;;;;4247793;33;20120;-69
2022/08/10 06:33:19;;;;;;;9.23;7.40;;;;;;;;;;4247341;33;20104;-70
2022/08/10 06:35:47;;;;;;;10.30;6.15;;;;;;;;;;4247640;33;20538;-69
2022/08/10 06:38:15;;;;;;;9.45;6.85;;;;;;;;;;4247355;33;20101;-70
2022/08/10 06:40:43;;;;;;;10.98;6.75;;;;;;;;;;4259214;33;20224;-69
2022/08/10 06:43:13;;;;;;;8.18;6.68;;;;;;;;;;4258988;33;20136;-69
2022/08/10 06:45:45;;;;;;;9.30;6.28;;;;;;;;;;4259226;33;20108;-70
2022/08/10 06:48:24;;;;;;;8.30;5.78;;;;;;;;;;4260654;33;20085;-69
2022/08/10 06:50:53;;;;;;;10.00;6.25;;;;;;;;;;4235947;33;20195;-70
2022/08/10 06:53:21;;;;;;;8.13;5.97;;;;;;;;;;4260309;33;20121;-67
2022/08/10 06:56:00;;;;;;;6.95;5.72;;;;;;;;;;4235605;33;20114;-70
2022/08/10 06:58:34;;;;;;;11.88;6.30;;;;;;;;;;4247229;33;20143;-69
2022/08/10 07:01:07;;;;;;;10.00;6.45;;;;;;;;;;4246119;33;20108;-70
2022/08/10 07:03:42;;;;;;;9.35;5.95;;;;;;;;;;4258323;33;20721;-70
2022/08/10 07:06:11;;;;;;;8.27;6.90;;;;;;;;;;4260053;33;20116;-70
2022/08/10 07:08:38;;;;;;;10.23;6.50;;;;;;;;;;4259829;33;20176;-68
2022/08/10 07:11:04;;;;;;;13.00;7.45;;;;;;;;;;4240145;33;20113;-68
2022/08/10 07:13:31;;;;;;;9.00;6.65;;;;;;;;;;4245896;33;20100;-67
2022/08/10 07:15:57;;;;;;;9.50;6.80;;;;;;;;;;4233018;33;20112;-70
2022/08/10 07:18:24;;;;;;;7.05;6.05;;;;;;;;;;4246042;33;20128;-70
2022/08/10 07:20:52;;;;;;;6.87;5.93;;;;;;;;;;4232716;33;20192;-68
2022/08/10 07:23:21;;;;;;;8.95;5.75;;;;;;;;;;4245948;33;20945;-68
2022/08/10 07:25:48;;;;;;;10.75;5.75;;;;;;;;;;4232059;33;20140;-66
2022/08/10 07:28:15;;;;;;;11.98;6.03;;;;;;;;;;4233009;33;20089;-69
2022/08/10 07:30:43;;;;;;;8.60;5.97;;;;;;;;;;4233230;33;20211;-59
2022/08/10 07:33:13;;;;;;;7.05;5.87;;;;;;;;;;4222124;33;20112;-67
2022/08/10 07:35:41;;;;;;;11.40;6.18;;;;;;;;;;4228433;33;20100;-61
2022/08/10 07:38:11;;;;;;;9.05;6.32;;;;;;;;;;4235507;33;20096;-62
2022/08/10 07:40:39;;;;;;;8.25;6.45;;;;;;;;;;4260581;33;20098;-62
2022/08/10 07:43:06;;;;;;;7.78;5.22;;;;;;;;;;4260105;33;20524;-61
2022/08/10 07:45:34;;;;;;;14.77;5.72;;;;;;;;;;4262319;33;20237;-62
2022/08/10 07:48:04;;;;;;;7.03;5.30;;;;;;;;;;4249029;33;20092;-61
2022/08/10 07:50:31;;;;;;;6.43;4.65;;;;;;;;;;4249737;33;20496;-61
2022/08/10 07:53:00;;;;;;;7.85;6.45;;;;;;;;;;4258688;33;20136;-61
2022/08/10 07:55:27;;;;;;;10.15;5.60;;;;;;;;;;4234992;33;20105;-61
2022/08/10 07:57:55;;;;;;;11.00;6.50;;;;;;;;;;4250183;33;20191;-60
2022/08/10 08:00:22;;;;;;;10.73;5.20;;;;;;;;;;4249138;33;20234;-62
2022/08/10 08:02:54;;;;;;;9.27;6.53;;;;;;;;;;4262544;33;20118;-60
2022/08/10 08:05:23;;;;;;;11.45;6.28;;;;;;;;;;4237421;33;20420;-62
2022/08/10 08:07:51;;;;;;;15.13;5.35;;;;;;;;;;4248910;33;20113;-61
2022/08/10 08:10:21;;;;;;;9.63;6.15;;;;;;;;;;4235176;33;20131;-63
2022/08/10 08:12:47;;;;;;;7.72;6.20;;;;;;;;;;4244280;33;20949;-62
2022/08/10 08:15:17;;;;;;;8.38;5.87;;;;;;;;;;4244302;33;20219;-62
2022/08/10 08:17:45;;;;;;;6.45;5.32;;;;;;;;;;4244560;33;20115;-63
2022/08/10 08:20:11;;;;;;;13.30;6.03;;;;;;;;;;4245237;33;20119;-63
2022/08/10 08:22:38;;;;;;;6.93;5.78;;;;;;;;;;4245385;33;20539;-59
2022/08/10 08:25:04;;;;;;;6.87;5.82;;;;;;;;;;4245556;33;20132;-61
2022/08/10 08:27:31;;;;;;;7.68;5.70;;;;;;;;;;4245283;33;20104;-64
2022/08/10 08:29:58;;;;;;;8.85;6.00;;;;;;;;;;4258812;33;20265;-62
2022/08/10 08:32:26;;;;;;;10.68;6.75;;;;;;;;;;4245266;33;20116;-60
2022/08/10 08:34:57;;;;;;;9.45;6.03;;;;;;;;;;4245098;33;20203;-60
2022/08/10 08:37:26;;;;;;;7.68;5.85;;;;;;;;;;4245201;33;20240;-62
2022/08/10 08:39:52;;;;;;;11.38;6.40;;;;;;;;;;4246380;33;20116;-62
2022/08/10 08:42:43;;;;;;;9.32;6.00;;;;;;;;;;4248449;33;20503;-62
2022/08/10 08:45:18;;;;;;;10.95;5.65;;;;;;;;;;4260559;33;20117;-62
2022/08/10 08:48:21;;;;;;;7.40;5.80;;;;;;;;;;4261491;33;20199;-61
2022/08/10 08:51:20;;;;;;;5.22;4.15;;;;;;;;;;4261583;33;20462;-62
2022/08/10 08:54:09;;;;;;;5.93;4.95;;;;;;;;;;4261462;33;20520;-64
2022/08/10 08:57:17;;;;;;;7.15;5.12;;;;;;;;;;4261747;33;20146;-66
2022/08/10 08:59:55;;;;;;;7.50;5.97;;;;;;;;;;4193944;34;20462;-62
2022/08/10 09:02:36;;;;;;;5.20;3.78;;;;;;;;;;4233275;33;20217;-62
2022/08/10 09:05:31;;;;;;;6.25;4.85;;;;;;;;;;4248384;33;20528;-59
2022/08/10 09:08:05;;;;;;;8.93;5.10;;;;;;;;;;4247129;33;20480;-61
2022/08/10 09:10:53;;;;;;;6.45;5.45;;;;;;;;;;4260153;33;20144;-61
2022/08/10 09:13:29;;;;;;;6.70;5.15;;;;;;;;;;4260211;33;20206;-61
2022/08/10 09:16:02;;;;;;;4.75;4.12;;;;;;;;;;4260541;33;20541;-61
2022/08/10 09:18:41;;;;;;;8.25;5.65;;;;;;;;;;4247029;33;20091;-61
2022/08/10 09:21:35;;;;;;;7.18;5.82;;;;;;;;;;4247761;33;20128;-61
2022/08/10 09:24:12;;;;;;;7.80;5.00;;;;;;;;;;4261230;33;20132;-61
2022/08/10 09:26:41;;;;;;;11.10;4.30;;;;;;;;;;4247998;33;20111;-60
2022/08/10 09:29:09;;;;;;;10.00;5.15;;;;;;;;;;4261444;33;20104;-60
2022/08/10 09:31:43;;;;;;;7.45;4.75;;;;;;;;;;4247973;33;20108;-60
2022/08/10 09:34:11;;;;;;;;;;;;;;;;;;4261468;33;20099;-61
2022/08/10 09:37:06;;;;;;;10.40;5.20;;;;;;;;;;4247866;33;19975;-61
2022/08/10 09:39:59;;;;;;;9.80;4.57;;;;;;;;;;4244772;33;20207;-61
2022/08/10 09:42:43;;;;;;;8.20;4.97;;;;;;;;;;4243298;33;20105;-60
2022/08/10 09:45:19;;;;;;;2.92;2.45;;;;;;;;;;4248149;33;20142;-60
2022/08/10 09:48:12;;;;;;;5.28;4.68;;;;;;;;;;4261001;33;20135;-61
2022/08/10 09:51:06;;;;;;;6.37;4.50;;;;;;;;;;4248241;33;20114;-61
2022/08/10 09:53:45;;;;;;;9.25;4.72;;;;;;;;;;4260969;33;20127;-62
2022/08/10 09:56:13;;;;;;;6.50;4.40;;;;;;;;;;4260998;33;20113;-61
2022/08/10 09:58:45;;;;;;;5.12;4.62;;;;;;;;;;4261246;33;20130;-61
2022/08/10 10:01:19;;;;;;;6.78;4.82;;;;;;;;;;4260948;33;20211;-63
2022/08/10 10:04:11;;;;;;;5.00;3.25;;;;;;;;;;4247352;33;20194;-62
2022/08/10 10:06:42;;;;;;;5.87;3.50;;;;;;;;;;4248665;33;20100;-62
2022/08/10 10:09:18;;;;;;;3.05;2.65;;;;;;;;;;4247718;33;20120;-60
2022/08/10 10:12:11;;;;;;;5.47;4.37;;;;;;;;;;4247892;33;20218;-60
2022/08/10 10:17:56;;;;;;;;;;;;;;;;;;4238174;33;20461;-60
2022/08/10 10:20:36;;;;;;;6.85;3.25;;;;;;;;;;4247734;33;19980;-59
2022/08/10 10:23:39;;;;;;;6.05;4.43;;;;;;;;;;4236009;33;20088;-61
2022/08/10 10:26:13;;;;;;;5.25;4.05;;;;;;;;;;4247469;33;20132;-62
2022/08/10 10:28:53;;;;;;;6.10;4.62;;;;;;;;;;4260689;33;20492;-61
2022/08/10 10:31:44;;;;;;;4.97;4.20;;;;;;;;;;4247626;33;20112;-60
2022/08/10 10:34:10;;;;;;;4.97;4.00;;;;;;;;;;4247641;33;20202;-61
2022/08/10 10:36:39;;;;;;;9.93;4.25;;;;;;;;;;4260319;33;20113;-61
2022/08/10 10:39:06;;;;;;;5.97;4.07;;;;;;;;;;4247654;33;20436;-61
2022/08/10 10:41:50;;;;;;;6.07;4.12;;;;;;;;;;4247405;33;20116;-61
2022/08/10 10:44:15;;;;;;;6.57;3.03;;;;;;;;;;4260567;33;20089;-63
2022/08/10 10:47:05;;;;;;;6.75;4.62;;;;;;;;;;4260367;33;20108;-60
2022/08/10 10:49:55;;;;;;;8.70;5.70;;;;;;;;;;4260361;33;20097;-63
2022/08/10 10:52:55;;;;;;;11.65;5.53;;;;;;;;;;4247336;33;20196;-60
2022/08/10 10:55:34;;;;;;;9.05;5.20;;;;;;;;;;4260760;33;20196;-61
2022/08/10 10:58:08;;;;;;;8.27;5.65;;;;;;;;;;4247173;33;20088;-61
2022/08/10 11:00:49;;;;;;;6.97;5.28;;;;;;;;;;4247585;33;20120;-61
2022/08/10 11:03:33;;;;;;;10.50;5.47;;;;;;;;;;4260426;33;20214;-59
2022/08/10 11:06:23;;;;;;;8.43;4.55;;;;;;;;;;4260437;33;20514;-61
2022/08/10 11:08:55;;;;;;;6.25;4.80;;;;;;;;;;4249732;33;20123;-61
2022/08/10 11:11:31;;;;;;;9.55;5.00;;;;;;;;;;4251900;33;20104;-62
2022/08/10 11:14:34;;;;;;;1.67;1.58;;;;;;;;;;4251935;33;20188;-60
2022/08/10 11:17:07;;;;;;;2.08;1.87;;;;;;;;;;4265000;33;20108;-62
2022/08/10 11:20:08;;;;;;;6.68;4.80;;;;;;;;;;4264808;33;20206;-62
2022/08/10 11:22:57;;;;;;;7.62;4.82;;;;;;;;;;4264529;33;20508;-61
2022/08/10 11:25:38;;;;;;;1.73;1.60;;;;;;;;;;4251887;33;20116;-61
2022/08/10 11:28:21;;;;;;;3.62;2.20;;;;;;;;;;4251731;33;20520;-61
2022/08/10 11:30:56;;;;;;;1.42;1.33;;;;;;;;;;4251884;33;20287;-61
2022/08/10 11:34:10;;;;;;;3.08;2.50;;;;;;;;;;4251680;33;20111;-60
2022/08/10 11:36:52;;;;;;;7.20;4.72;;;;;;;;;;4260607;33;20140;-61
2022/08/10 11:39:34;;;;;;;6.65;4.32;;;;;;;;;;4251547;33;20519;-60
2022/08/10 11:42:05;;;;;;;5.10;3.53;;;;;;;;;;4251752;33;20677;-61
2022/08/10 11:44:33;;;;;;;7.10;5.25;;;;;;;;;;4251614;33;20112;-61
2022/08/10 11:47:26;;;;;;;7.00;5.22;;;;;;;;;;4264875;33;20085;-60
2022/08/10 11:49:56;;;;;;;4.65;4.00;;;;;;;;;;4250968;33;20262;-60
2022/08/10 11:52:35;;;;;;;6.22;4.87;;;;;;;;;;4251429;33;20500;-59
2022/08/10 11:55:11;;;;;;;6.40;4.97;;;;;;;;;;4251303;33;20645;-58
2022/08/10 11:57:37;;;;;;;4.97;3.85;;;;;;;;;;4251281;33;20136;-57
2022/08/10 12:00:06;;;;;;;8.57;3.85;;;;;;;;;;4264564;33;20534;-59
2022/08/10 12:02:41;;;;;;;1.27;1.20;;;;;;;;;;4251606;33;20116;-61
2022/08/10 12:05:10;;;;;;;7.00;4.37;;;;;;;;;;4264904;33;20097;-61
2022/08/10 12:07:57;;;;;;;2.92;2.30;;;;;;;;;;4264703;33;20591;-62
2022/08/10 12:10:24;;;;;;;5.25;3.00;;;;;;;;;;4251362;33;20104;-60
2022/08/10 12:13:09;;;;;;;5.70;4.18;;;;;;;;;;4251225;33;20112;-61
2022/08/10 12:16:15;;;;;;;4.20;3.00;;;;;;;;;;4264323;33;20105;-61
2022/08/10 12:19:08;;;;;;;8.10;3.33;;;;;;;;;;4251066;33;20131;-61
2022/08/10 12:21:38;;;;;;;6.45;4.28;;;;;;;;;;4261813;33;20114;-61
2022/08/10 12:24:25;;;;;;;9.73;4.45;;;;;;;;;;4261629;33;20151;-61
2022/08/10 12:27:11;;;;;;;5.30;4.37;;;;;;;;;;4248500;33;20120;-61
2022/08/10 12:29:55;;;;;;;4.60;3.55;;;;;;;;;;4261582;33;20108;-62
2022/08/10 12:32:52;;;;;;;6.53;3.45;;;;;;;;;;4248497;33;20476;-61
2022/08/10 12:35:33;;;;;;;6.60;3.55;;;;;;;;;;4261889;33;20123;-63
2022/08/10 12:38:09;;;;;;;8.23;4.20;;;;;;;;;;4248445;33;20113;-61
2022/08/10 12:40:45;;;;;;;4.18;3.55;;;;;;;;;;4261626;33;20111;-61
2022/08/10 12:43:18;;;;;;;5.37;4.20;;;;;;;;;;4248553;33;20492;-62
2022/08/10 12:45:56;;;;;;;10.57;4.32;;;;;;;;;;4248522;33;20119;-61
2022/08/10 12:48:43;;;;;;;3.42;2.72;;;;;;;;;;4248363;33;20112;-62
2022/08/10 12:51:23;;;;;;;3.58;3.17;;;;;;;;;;4248786;33;20132;-62
2022/08/10 12:53:55;;;;;;;4.47;4.07;;;;;;;;;;4248283;33;20539;-62
2022/08/10 12:56:26;;;;;;;4.32;2.83;;;;;;;;;;4248448;33;20199;-61
2022/08/10 12:58:53;;;;;;;6.20;3.95;;;;;;;;;;4257733;33;20104;-60
2022/08/10 13:01:23;;;;;;;6.72;3.65;;;;;;;;;;4224454;33;20257;-59
2022/08/10 13:03:55;;;;;;;8.70;3.97;;;;;;;;;;4223062;33;20224;-59
2022/08/10 13:06:22;;;;;;;5.90;2.83;;;;;;;;;;4234043;33;20649;-60
2022/08/10 13:09:11;;;;;;;4.35;3.65;;;;;;;;;;4222698;33;20541;-62
2022/08/10 13:11:49;;;;;;;8.63;3.55;;;;;;;;;;4258872;33;20501;-62
2022/08/10 13:14:50;;;;;;;2.97;2.72;;;;;;;;;;4224932;33;20283;-60
2022/08/10 13:17:30;;;;;;;2.67;2.12;;;;;;;;;;4262111;33;20917;-61
2022/08/10 13:19:56;;;;;;;4.18;3.47;;;;;;;;;;4247323;33;20104;-58
2022/08/10 13:22:26;;;;;;;9.52;4.18;;;;;;;;;;4234714;33;20127;-62
2022/08/10 13:24:53;;;;;;;8.43;4.20;;;;;;;;;;4233997;33;20159;-61
2022/08/10 13:27:25;;;;;;;4.53;3.60;;;;;;;;;;4222491;33;20128;-60
2022/08/10 13:30:04;;;;;;;6.40;3.97;;;;;;;;;;4234063;33;20579;-60
2022/08/10 13:32:32;;;;;;;3.85;3.30;;;;;;;;;;4236616;33;20117;-60
2022/08/10 13:35:02;;;;;;;4.62;3.58;;;;;;;;;;4236413;33;20104;-62
2022/08/10 13:37:30;;;;;;;4.28;3.60;;;;;;;;;;4236470;33;20512;-62
2022/08/10 13:39:59;;;;;;;6.32;3.83;;;;;;;;;;4260440;33;20222;-61
2022/08/10 13:42:29;;;;;;;4.22;3.78;;;;;;;;;;4234621;33;20119;-61
2022/08/10 13:44:56;;;;;;;4.30;3.90;;;;;;;;;;4234102;33;20128;-62
2022/08/10 13:47:31;;;;;;;4.50;3.58;;;;;;;;;;4233743;33;20116;-60
2022/08/10 13:50:06;;;;;;;5.75;4.22;;;;;;;;;;4245137;33;20136;-62
2022/08/10 13:52:34;;;;;;;8.65;4.60;;;;;;;;;;4233857;33;20089;-63
2022/08/10 13:55:00;;;;;;;6.15;3.00;;;;;;;;;;4233829;33;20097;-63
2022/08/10 13:57:33;;;;;;;5.03;3.53;;;;;;;;;;4233704;33;20148;-63
2022/08/10 14:00:02;;;;;;;6.10;3.62;;;;;;;;;;4233656;33;20111;-64
2022/08/10 14:02:38;;;;;;;4.68;3.12;;;;;;;;;;4246782;33;20116;-62
2022/08/10 14:05:05;;;;;;;7.30;4.37;;;;;;;;;;4246662;33;20117;-67
2022/08/10 14:07:31;;;;;;;2.00;1.90;;;;;;;;;;4233940;33;20085;-65
2022/08/10 14:10:05;;;;;;;1.92;1.65;;;;;;;;;;4233577;33;20132;-63
2022/08/10 14:12:37;;;;;;;6.22;4.40;;;;;;;;;;4246788;33;20476;-69
2022/08/10 14:15:06;;;;;;;12.80;4.70;;;;;;;;;;4233577;33;20223;-63
2022/08/10 14:17:34;;;;;;;13.68;4.35;;;;;;;;;;4233575;33;20105;-64
2022/08/10 14:20:03;;;;;;;12.05;4.07;;;;;;;;;;4233471;33;20476;-62
2022/08/10 14:22:29;;;;;;;6.28;4.25;;;;;;;;;;4233717;33;20242;-62
2022/08/10 14:25:07;;;;;;;3.53;2.58;;;;;;;;;;4233671;33;20556;-63
2022/08/10 14:27:35;;;;;;;6.55;4.28;;;;;;;;;;4246517;33;20108;-63
2022/08/10 14:30:02;;;;;;;6.57;4.25;;;;;;;;;;4246632;33;20615;-62
2022/08/10 14:32:30;;;;;;;7.12;4.75;;;;;;;;;;4246614;33;20104;-62
2022/08/10 14:34:58;;;;;;;8.48;4.35;;;;;;;;;;4233333;33;20196;-64
2022/08/10 14:37:33;;;;;;;2.17;1.98;;;;;;;;;;4233591;33;20081;-66
2022/08/10 14:40:07;;;;;;;;;;;;;;;;;;4244901;33;20088;-64
2022/08/10 14:42:45;;;;;;;11.43;5.15;;;;;;;;;;4246900;33;20320;-63
2022/08/10 14:45:24;;;;;;;10.90;4.68;;;;;;;;;;4247006;33;20203;-63
2022/08/10 14:47:52;;;;;;;7.80;3.62;;;;;;;;;;4247366;33;20183;-64
2022/08/10 14:50:19;;;;;;;5.12;4.10;;;;;;;;;;4260134;33;20120;-63
2022/08/10 14:52:47;;;;;;;10.35;5.22;;;;;;;;;;4235443;33;20088;-63
2022/08/10 14:55:17;;;;;;;4.20;2.90;;;;;;;;;;4247325;33;20104;-66
2022/08/10 14:57:45;;;;;;;9.80;4.55;;;;;;;;;;4247279;33;20108;-65
2022/08/10 15:00:12;;;;;;;6.30;3.92;;;;;;;;;;4245594;33;20461;-63
2022/08/10 15:02:46;;;;;;;8.57;4.68;;;;;;;;;;4242276;33;20203;-65
2022/08/10 15:05:14;;;;;;;5.10;4.43;;;;;;;;;;4257332;33;20215;-63
2022/08/10 15:07:44;;;;;;;8.77;4.70;;;;;;;;;;4243880;33;20610;-63
2022/08/10 15:10:17;;;;;;;8.50;4.82;;;;;;;;;;4255493;33;20232;-63
2022/08/10 15:12:44;;;;;;;7.93;5.50;;;;;;;;;;4235228;33;20097;-62
2022/08/10 15:15:12;;;;;;;12.45;6.87;;;;;;;;;;4250512;33;20116;-62
2022/08/10 15:17:42;;;;;;;21.60;11.63;;;;;;;;;;4228164;33;20080;-63
2022/08/10 15:20:17;;;;;;;11.63;8.30;;;;;;;;;;4239738;33;20543;-63
2022/08/10 15:22:51;;;;;;;;;;;;;;;;;;4240557;33;20087;-64
2022/08/10 15:25:18;;;;;;;14.80;5.82;;;;;;;;;;4238526;33;20364;-62
2022/08/10 15:27:47;;;;;;;11.00;6.55;;;;;;;;;;4241333;33;20124;-62
2022/08/10 15:30:13;;;;;;;21.30;7.20;;;;;;;;;;4249357;33;20103;-62
2022/08/10 15:38:17;;;;;;;11.60;5.12;;;;;;;;;;4248668;33;20119;-62
2022/08/10 15:40:51;;;;;;;9.32;5.25;;;;;;;;;;4258845;33;20101;-63
2022/08/10 15:43:21;;;;;;;9.40;6.43;;;;;;;;;;4257969;33;20119;-62
2022/08/10 15:46:01;;;;;;;12.52;6.15;;;;;;;;;;4245373;33;20767;-63
2022/08/10 15:48:39;;;;;;;7.05;5.45;;;;;;;;;;4259834;33;20543;-63